sensor_id;sensor_type;location;lat;lon;timestamp;temperature;humidity
26378;DHT22;14078;50.974;6.786;2022-10-31T00:01:18;13.90;99.90
26378;DHT22;14078;50.974;6.786;2022-10-31T00:03:45;13.80;99.90
26378;DHT22;14078;50.974;6.786;2022-10-31T00:06:12;13.70;99.90
26378;DHT22;14078;50.974;6.786;2022-10-31T00:08:39;13.70;99.90
26378;DHT22;14078;50.974;6.786;2022-10-31T00:11:09;13.60;99.90
26378;DHT22;14078;50.974;6.786;2022-10-31T00:13:35;13.70;99.90
26378;DHT22;14078;50.974;6.786;2022-10-31T00:16:02;13.60;99.90
26378;DHT22;14078;50.974;6.786;2022-10-31T00:18:28;13.80;99.90
26378;DHT22;14078;50.974;6.786;2022-10-31T00:20:58;13.70;99.90
26378;DHT22;14078;50.974;6.786;2022-10-31T00:23:25;13.60;99.90
26378;DHT22;14078;50.974;6.786;2022-10-31T00:25:52;13.50;99.90
26378;DHT22;14078;50.974;6.786;2022-10-31T00:28:19;13.40;99.90
26378;DHT22;14078;50.974;6.786;2022-10-31T00:30:46;13.30;99.90
26378;DHT22;14078;50.974;6.786;2022-10-31T00:33:12;13.20;99.90
26378;DHT22;14078;50.974;6.786;2022-10-31T00:35:39;13.30;99.90
26378;DHT22;14078;50.974;6.786;2022-10-31T00:38:05;13.50;99.90
26378;DHT22;14078;50.974;6.786;2022-10-31T00:40:32;13.60;99.90
26378;DHT22;14078;50.974;6.786;2022-10-31T00:42:58;13.70;99.90
26378;DHT22;14078;50.974;6.786;2022-10-31T00:45:26;13.80;99.90
26378;DHT22;14078;50.974;6.786;2022-10-31T00:47:53;13.80;99.90
26378;DHT22;14078;50.974;6.786;2022-10-31T00:50:19;13.80;99.90
26378;DHT22;14078;50.974;6.786;2022-10-31T00:52:46;13.80;99.90
26378;DHT22;14078;50.974;6.786;2022-10-31T00:55:12;13.80;99.90
26378;DHT22;14078;50.974;6.786;2022-10-31T00:57:39;13.70;99.90
26378;DHT22;14078;50.974;6.786;2022-10-31T01:00:06;13.60;99.90
26378;DHT22;14078;50.974;6.786;2022-10-31T01:02:34;13.50;99.90
26378;DHT22;14078;50.974;6.786;2022-10-31T01:05:00;13.40;99.90
26378;DHT22;14078;50.974;6.786;2022-10-31T01:07:27;13.40;99.90
26378;DHT22;14078;50.974;6.786;2022-10-31T01:09:53;13.30;99.90
26378;DHT22;14078;50.974;6.786;2022-10-31T01:12:20;13.30;99.90
26378;DHT22;14078;50.974;6.786;2022-10-31T01:14:46;13.20;99.90
26378;DHT22;14078;50.974;6.786;2022-10-31T01:17:13;13.10;99.90
26378;DHT22;14078;50.974;6.786;2022-10-31T01:19:41;13.20;99.90
26378;DHT22;14078;50.974;6.786;2022-10-31T01:22:07;13.40;99.90
26378;DHT22;14078;50.974;6.786;2022-10-31T01:24:34;13.50;99.90
26378;DHT22;14078;50.974;6.786;2022-10-31T01:27:00;13.60;99.90
26378;DHT22;14078;50.974;6.786;2022-10-31T01:29:27;13.70;99.90
26378;DHT22;14078;50.974;6.786;2022-10-31T01:31:53;13.60;99.90
26378;DHT22;14078;50.974;6.786;2022-10-31T01:34:20;13.50;99.90
26378;DHT22;14078;50.974;6.786;2022-10-31T01:36:47;13.30;99.90
26378;DHT22;14078;50.974;6.786;2022-10-31T01:39:16;13.20;99.90
26378;DHT22;14078;50.974;6.786;2022-10-31T01:41:44;13.00;99.90
26378;DHT22;14078;50.974;6.786;2022-10-31T01:46:56;12.80;99.90
26378;DHT22;14078;50.974;6.786;2022-10-31T01:49:33;12.80;99.90
26378;DHT22;14078;50.974;6.786;2022-10-31T01:52:02;12.70;99.90
26378;DHT22;14078;50.974;6.786;2022-10-31T01:54:31;12.90;99.90
26378;DHT22;14078;50.974;6.786;2022-10-31T01:56:58;13.00;99.90
26378;DHT22;14078;50.974;6.786;2022-10-31T01:59:26;13.10;99.90
26378;DHT22;14078;50.974;6.786;2022-10-31T02:01:54;13.10;99.90
26378;DHT22;14078;50.974;6.786;2022-10-31T02:04:21;13.10;99.90
26378;DHT22;14078;50.974;6.786;2022-10-31T02:06:49;13.20;99.90
26378;DHT22;14078;50.974;6.786;2022-10-31T02:09:19;13.20;99.90
26378;DHT22;14078;50.974;6.786;2022-10-31T02:11:48;13.20;99.90
26378;DHT22;14078;50.974;6.786;2022-10-31T02:14:16;13.20;99.90
26378;DHT22;14078;50.974;6.786;2022-10-31T02:16:42;13.20;99.90
26378;DHT22;14078;50.974;6.786;2022-10-31T02:19:09;13.20;99.90
26378;DHT22;14078;50.974;6.786;2022-10-31T02:21:40;13.10;99.90
26378;DHT22;14078;50.974;6.786;2022-10-31T02:27:04;13.00;99.90
26378;DHT22;14078;50.974;6.786;2022-10-31T02:32:20;12.90;99.90
26378;DHT22;14078;50.974;6.786;2022-10-31T02:34:52;12.60;99.90
26378;DHT22;14078;50.974;6.786;2022-10-31T02:37:24;12.40;99.90
26378;DHT22;14078;50.974;6.786;2022-10-31T02:39:53;12.30;99.90
26378;DHT22;14078;50.974;6.786;2022-10-31T02:42:22;12.50;99.90
26378;DHT22;14078;50.974;6.786;2022-10-31T02:44:55;12.60;99.90
26378;DHT22;14078;50.974;6.786;2022-10-31T02:47:23;12.70;99.90
26378;DHT22;14078;50.974;6.786;2022-10-31T02:49:53;12.80;99.90
26378;DHT22;14078;50.974;6.786;2022-10-31T02:52:24;12.70;99.90
26378;DHT22;14078;50.974;6.786;2022-10-31T02:54:51;12.70;99.90
26378;DHT22;14078;50.974;6.786;2022-10-31T02:57:18;12.70;99.90
26378;DHT22;14078;50.974;6.786;2022-10-31T02:59:49;12.60;99.90
26378;DHT22;14078;50.974;6.786;2022-10-31T03:02:25;12.50;99.90
26378;DHT22;14078;50.974;6.786;2022-10-31T03:05:03;12.40;99.90
26378;DHT22;14078;50.974;6.786;2022-10-31T03:07:36;12.40;99.90
26378;DHT22;14078;50.974;6.786;2022-10-31T03:10:08;12.50;99.90
26378;DHT22;14078;50.974;6.786;2022-10-31T03:12:40;12.50;99.90
26378;DHT22;14078;50.974;6.786;2022-10-31T03:15:12;12.60;99.90
26378;DHT22;14078;50.974;6.786;2022-10-31T03:17:41;12.70;99.90
26378;DHT22;14078;50.974;6.786;2022-10-31T03:20:11;12.60;99.90
26378;DHT22;14078;50.974;6.786;2022-10-31T03:22:37;12.50;99.90
26378;DHT22;14078;50.974;6.786;2022-10-31T03:25:06;12.40;99.90
26378;DHT22;14078;50.974;6.786;2022-10-31T03:27:33;12.50;99.90
26378;DHT22;14078;50.974;6.786;2022-10-31T03:30:02;12.40;99.90
26378;DHT22;14078;50.974;6.786;2022-10-31T03:32:31;12.40;99.90
26378;DHT22;14078;50.974;6.786;2022-10-31T03:35:02;12.60;99.90
26378;DHT22;14078;50.974;6.786;2022-10-31T03:37:32;12.50;99.90
26378;DHT22;14078;50.974;6.786;2022-10-31T03:39:59;12.50;99.90
26378;DHT22;14078;50.974;6.786;2022-10-31T03:42:27;12.40;99.90
26378;DHT22;14078;50.974;6.786;2022-10-31T03:44:56;12.40;99.90
26378;DHT22;14078;50.974;6.786;2022-10-31T03:47:24;12.40;99.90
26378;DHT22;14078;50.974;6.786;2022-10-31T03:49:50;12.30;99.90
26378;DHT22;14078;50.974;6.786;2022-10-31T03:52:20;12.30;99.90
26378;DHT22;14078;50.974;6.786;2022-10-31T03:54:49;12.20;99.90
26378;DHT22;14078;50.974;6.786;2022-10-31T03:57:19;12.00;99.90
26378;DHT22;14078;50.974;6.786;2022-10-31T03:59:50;12.00;99.90
26378;DHT22;14078;50.974;6.786;2022-10-31T04:02:19;11.90;99.90
26378;DHT22;14078;50.974;6.786;2022-10-31T04:04:47;11.80;99.90
26378;DHT22;14078;50.974;6.786;2022-10-31T04:07:14;11.70;99.90
26378;DHT22;14078;50.974;6.786;2022-10-31T04:09:43;11.70;99.90
26378;DHT22;14078;50.974;6.786;2022-10-31T04:12:11;11.80;99.90
26378;DHT22;14078;50.974;6.786;2022-10-31T04:14:41;11.70;99.90
26378;DHT22;14078;50.974;6.786;2022-10-31T04:17:09;11.60;99.90
26378;DHT22;14078;50.974;6.786;2022-10-31T04:19:37;11.40;99.90
26378;DHT22;14078;50.974;6.786;2022-10-31T04:22:04;11.40;99.90
26378;DHT22;14078;50.974;6.786;2022-10-31T04:24:30;11.40;99.90
26378;DHT22;14078;50.974;6.786;2022-10-31T04:26:58;11.30;99.90
26378;DHT22;14078;50.974;6.786;2022-10-31T04:29:24;11.30;99.90
26378;DHT22;14078;50.974;6.786;2022-10-31T04:31:51;11.30;99.90
26378;DHT22;14078;50.974;6.786;2022-10-31T04:34:17;11.50;99.90
26378;DHT22;14078;50.974;6.786;2022-10-31T04:36:44;11.70;99.90
26378;DHT22;14078;50.974;6.786;2022-10-31T04:39:10;11.90;99.90
26378;DHT22;14078;50.974;6.786;2022-10-31T04:41:37;12.00;99.90
26378;DHT22;14078;50.974;6.786;2022-10-31T04:44:05;12.10;99.90
26378;DHT22;14078;50.974;6.786;2022-10-31T04:46:31;12.20;99.90
26378;DHT22;14078;50.974;6.786;2022-10-31T04:48:58;12.20;99.90
26378;DHT22;14078;50.974;6.786;2022-10-31T04:51:24;12.30;99.90
26378;DHT22;14078;50.974;6.786;2022-10-31T04:53:51;12.30;99.90
26378;DHT22;14078;50.974;6.786;2022-10-31T04:56:17;12.30;99.90
26378;DHT22;14078;50.974;6.786;2022-10-31T04:58:44;12.20;99.90
26378;DHT22;14078;50.974;6.786;2022-10-31T05:01:12;12.20;99.90
26378;DHT22;14078;50.974;6.786;2022-10-31T05:03:38;12.20;99.90
26378;DHT22;14078;50.974;6.786;2022-10-31T05:06:05;12.20;99.90
26378;DHT22;14078;50.974;6.786;2022-10-31T05:08:32;12.20;99.90
26378;DHT22;14078;50.974;6.786;2022-10-31T05:10:59;12.30;99.90
26378;DHT22;14078;50.974;6.786;2022-10-31T05:13:25;12.40;99.90
26378;DHT22;14078;50.974;6.786;2022-10-31T05:15:52;12.40;99.90
26378;DHT22;14078;50.974;6.786;2022-10-31T05:18:20;12.40;99.90
26378;DHT22;14078;50.974;6.786;2022-10-31T05:20:46;12.50;99.90
26378;DHT22;14078;50.974;6.786;2022-10-31T05:23:13;12.60;99.90
26378;DHT22;14078;50.974;6.786;2022-10-31T05:25:40;12.60;99.90
26378;DHT22;14078;50.974;6.786;2022-10-31T05:28:07;12.50;99.90
26378;DHT22;14078;50.974;6.786;2022-10-31T05:30:34;12.40;99.90
26378;DHT22;14078;50.974;6.786;2022-10-31T05:33:01;12.30;99.90
26378;DHT22;14078;50.974;6.786;2022-10-31T05:35:30;12.20;99.90
26378;DHT22;14078;50.974;6.786;2022-10-31T05:37:57;12.20;99.90
26378;DHT22;14078;50.974;6.786;2022-10-31T05:40:24;12.10;99.90
26378;DHT22;14078;50.974;6.786;2022-10-31T05:42:51;12.00;99.90
26378;DHT22;14078;50.974;6.786;2022-10-31T05:45:19;11.80;99.90
26378;DHT22;14078;50.974;6.786;2022-10-31T05:47:49;11.70;99.90
26378;DHT22;14078;50.974;6.786;2022-10-31T05:50:16;11.60;99.90
26378;DHT22;14078;50.974;6.786;2022-10-31T05:52:44;11.70;99.90
26378;DHT22;14078;50.974;6.786;2022-10-31T05:55:10;11.70;99.90
26378;DHT22;14078;50.974;6.786;2022-10-31T05:57:37;11.70;99.90
26378;DHT22;14078;50.974;6.786;2022-10-31T06:00:04;11.60;99.90
26378;DHT22;14078;50.974;6.786;2022-10-31T06:02:31;11.70;99.90
26378;DHT22;14078;50.974;6.786;2022-10-31T06:04:59;11.70;99.90
26378;DHT22;14078;50.974;6.786;2022-10-31T06:07:31;11.70;99.90
26378;DHT22;14078;50.974;6.786;2022-10-31T06:09:59;11.70;99.90
26378;DHT22;14078;50.974;6.786;2022-10-31T06:12:25;11.70;99.90
26378;DHT22;14078;50.974;6.786;2022-10-31T06:14:52;11.70;99.90
26378;DHT22;14078;50.974;6.786;2022-10-31T06:17:19;11.80;99.90
26378;DHT22;14078;50.974;6.786;2022-10-31T06:19:45;11.80;99.90
26378;DHT22;14078;50.974;6.786;2022-10-31T06:22:11;11.70;99.90
26378;DHT22;14078;50.974;6.786;2022-10-31T06:24:38;11.70;99.90
26378;DHT22;14078;50.974;6.786;2022-10-31T06:27:06;11.90;99.90
26378;DHT22;14078;50.974;6.786;2022-10-31T06:29:32;11.90;99.90
26378;DHT22;14078;50.974;6.786;2022-10-31T06:31:59;11.90;99.90
26378;DHT22;14078;50.974;6.786;2022-10-31T06:34:25;11.80;99.90
26378;DHT22;14078;50.974;6.786;2022-10-31T06:36:52;11.80;99.90
26378;DHT22;14078;50.974;6.786;2022-10-31T06:39:18;11.80;99.90
26378;DHT22;14078;50.974;6.786;2022-10-31T06:41:46;11.70;99.90
26378;DHT22;14078;50.974;6.786;2022-10-31T06:44:14;11.70;99.90
26378;DHT22;14078;50.974;6.786;2022-10-31T06:46:41;11.70;99.90
26378;DHT22;14078;50.974;6.786;2022-10-31T06:49:07;11.60;99.90
26378;DHT22;14078;50.974;6.786;2022-10-31T06:51:34;11.60;99.90
26378;DHT22;14078;50.974;6.786;2022-10-31T06:54:00;11.50;99.90
26378;DHT22;14078;50.974;6.786;2022-10-31T06:56:27;11.40;99.90
26378;DHT22;14078;50.974;6.786;2022-10-31T06:58:53;11.40;99.90
26378;DHT22;14078;50.974;6.786;2022-10-31T07:01:21;11.50;99.90
26378;DHT22;14078;50.974;6.786;2022-10-31T07:03:48;11.50;99.90
26378;DHT22;14078;50.974;6.786;2022-10-31T07:06:14;11.60;99.90
26378;DHT22;14078;50.974;6.786;2022-10-31T07:08:41;11.70;99.90
26378;DHT22;14078;50.974;6.786;2022-10-31T07:11:07;11.80;99.90
26378;DHT22;14078;50.974;6.786;2022-10-31T07:13:34;11.80;99.90
26378;DHT22;14078;50.974;6.786;2022-10-31T07:16:01;11.80;99.90
26378;DHT22;14078;50.974;6.786;2022-10-31T07:18:29;11.80;99.90
26378;DHT22;14078;50.974;6.786;2022-10-31T07:20:55;11.80;99.90
26378;DHT22;14078;50.974;6.786;2022-10-31T07:23:22;11.80;99.90
26378;DHT22;14078;50.974;6.786;2022-10-31T07:25:48;11.90;99.90
26378;DHT22;14078;50.974;6.786;2022-10-31T07:28:20;12.10;99.90
26378;DHT22;14078;50.974;6.786;2022-10-31T07:30:49;12.10;99.90
26378;DHT22;14078;50.974;6.786;2022-10-31T07:33:15;12.10;99.90
26378;DHT22;14078;50.974;6.786;2022-10-31T07:35:43;12.10;99.90
26378;DHT22;14078;50.974;6.786;2022-10-31T07:38:10;12.00;99.90
26378;DHT22;14078;50.974;6.786;2022-10-31T07:40:37;12.00;99.90
26378;DHT22;14078;50.974;6.786;2022-10-31T07:43:04;12.00;99.90
26378;DHT22;14078;50.974;6.786;2022-10-31T07:45:30;12.10;99.90
26378;DHT22;14078;50.974;6.786;2022-10-31T07:47:57;12.20;99.90
26378;DHT22;14078;50.974;6.786;2022-10-31T07:50:24;12.20;99.90
26378;DHT22;14078;50.974;6.786;2022-10-31T07:52:58;12.30;99.90
26378;DHT22;14078;50.974;6.786;2022-10-31T07:55:25;12.30;99.90
26378;DHT22;14078;50.974;6.786;2022-10-31T07:57:55;12.40;99.90
26378;DHT22;14078;50.974;6.786;2022-10-31T08:00:22;12.40;99.90
26378;DHT22;14078;50.974;6.786;2022-10-31T08:02:55;12.50;99.90
26378;DHT22;14078;50.974;6.786;2022-10-31T08:05:22;12.60;99.90
26378;DHT22;14078;50.974;6.786;2022-10-31T08:07:48;12.60;99.90
26378;DHT22;14078;50.974;6.786;2022-10-31T08:10:16;12.60;99.90
26378;DHT22;14078;50.974;6.786;2022-10-31T08:12:43;12.60;99.90
26378;DHT22;14078;50.974;6.786;2022-10-31T08:15:09;12.60;99.90
26378;DHT22;14078;50.974;6.786;2022-10-31T08:17:36;12.60;99.90
26378;DHT22;14078;50.974;6.786;2022-10-31T08:20:03;12.60;99.90
26378;DHT22;14078;50.974;6.786;2022-10-31T08:22:29;12.70;99.90
26378;DHT22;14078;50.974;6.786;2022-10-31T08:24:56;12.70;99.90
26378;DHT22;14078;50.974;6.786;2022-10-31T08:27:24;12.70;99.90
26378;DHT22;14078;50.974;6.786;2022-10-31T08:29:50;12.70;99.90
26378;DHT22;14078;50.974;6.786;2022-10-31T08:32:17;12.70;99.90
26378;DHT22;14078;50.974;6.786;2022-10-31T08:34:43;12.70;99.90
26378;DHT22;14078;50.974;6.786;2022-10-31T08:37:10;12.80;99.90
26378;DHT22;14078;50.974;6.786;2022-10-31T08:39:36;12.90;99.90
26378;DHT22;14078;50.974;6.786;2022-10-31T08:42:03;13.00;99.90
26378;DHT22;14078;50.974;6.786;2022-10-31T08:44:30;13.10;99.90
26378;DHT22;14078;50.974;6.786;2022-10-31T08:46:57;13.00;99.90
26378;DHT22;14078;50.974;6.786;2022-10-31T08:49:23;13.10;99.90
26378;DHT22;14078;50.974;6.786;2022-10-31T08:51:50;13.20;99.90
26378;DHT22;14078;50.974;6.786;2022-10-31T08:54:16;13.20;99.90
26378;DHT22;14078;50.974;6.786;2022-10-31T08:56:43;13.20;99.90
26378;DHT22;14078;50.974;6.786;2022-10-31T08:59:09;13.30;99.90
26378;DHT22;14078;50.974;6.786;2022-10-31T09:01:37;13.30;99.90
26378;DHT22;14078;50.974;6.786;2022-10-31T09:04:04;13.30;99.90
26378;DHT22;14078;50.974;6.786;2022-10-31T09:06:30;13.30;99.90
26378;DHT22;14078;50.974;6.786;2022-10-31T09:08:57;13.30;99.90
26378;DHT22;14078;50.974;6.786;2022-10-31T09:11:23;13.40;99.90
26378;DHT22;14078;50.974;6.786;2022-10-31T09:13:51;13.50;99.90
26378;DHT22;14078;50.974;6.786;2022-10-31T09:16:18;13.50;99.90
26378;DHT22;14078;50.974;6.786;2022-10-31T09:18:46;13.50;99.90
26378;DHT22;14078;50.974;6.786;2022-10-31T09:21:12;13.60;99.90
26378;DHT22;14078;50.974;6.786;2022-10-31T09:23:39;13.60;99.90
26378;DHT22;14078;50.974;6.786;2022-10-31T09:26:05;13.60;99.90
26378;DHT22;14078;50.974;6.786;2022-10-31T09:28:33;13.70;99.90
26378;DHT22;14078;50.974;6.786;2022-10-31T09:31:00;13.70;99.90
26378;DHT22;14078;50.974;6.786;2022-10-31T09:33:27;13.80;99.90
26378;DHT22;14078;50.974;6.786;2022-10-31T09:35:54;13.90;99.90
26378;DHT22;14078;50.974;6.786;2022-10-31T09:38:21;14.00;99.90
26378;DHT22;14078;50.974;6.786;2022-10-31T09:40:49;14.00;99.90
26378;DHT22;14078;50.974;6.786;2022-10-31T09:43:20;14.10;99.90
26378;DHT22;14078;50.974;6.786;2022-10-31T09:45:54;14.20;99.90
26378;DHT22;14078;50.974;6.786;2022-10-31T09:48:28;14.20;99.90
26378;DHT22;14078;50.974;6.786;2022-10-31T09:51:00;14.40;99.90
26378;DHT22;14078;50.974;6.786;2022-10-31T09:53:29;14.50;99.90
26378;DHT22;14078;50.974;6.786;2022-10-31T09:55:58;14.60;99.90
26378;DHT22;14078;50.974;6.786;2022-10-31T09:58:26;14.60;99.90
26378;DHT22;14078;50.974;6.786;2022-10-31T10:00:53;14.70;99.90
26378;DHT22;14078;50.974;6.786;2022-10-31T10:03:24;14.80;99.90
26378;DHT22;14078;50.974;6.786;2022-10-31T10:05:54;14.90;99.90
26378;DHT22;14078;50.974;6.786;2022-10-31T10:08:25;15.00;99.90
26378;DHT22;14078;50.974;6.786;2022-10-31T10:10:54;15.00;99.90
26378;DHT22;14078;50.974;6.786;2022-10-31T10:13:36;15.10;99.90
26378;DHT22;14078;50.974;6.786;2022-10-31T10:16:10;15.10;99.90
26378;DHT22;14078;50.974;6.786;2022-10-31T10:18:43;15.20;99.90
26378;DHT22;14078;50.974;6.786;2022-10-31T10:21:15;15.20;99.90
26378;DHT22;14078;50.974;6.786;2022-10-31T10:23:48;15.30;99.90
26378;DHT22;14078;50.974;6.786;2022-10-31T10:26:19;15.30;99.90
26378;DHT22;14078;50.974;6.786;2022-10-31T10:28:46;15.40;99.90
26378;DHT22;14078;50.974;6.786;2022-10-31T10:31:15;15.50;99.90
26378;DHT22;14078;50.974;6.786;2022-10-31T10:33:44;15.60;99.90
26378;DHT22;14078;50.974;6.786;2022-10-31T10:36:13;15.60;99.90
26378;DHT22;14078;50.974;6.786;2022-10-31T10:38:45;15.70;99.90
26378;DHT22;14078;50.974;6.786;2022-10-31T10:41:16;15.70;99.90
26378;DHT22;14078;50.974;6.786;2022-10-31T10:43:43;15.80;99.90
26378;DHT22;14078;50.974;6.786;2022-10-31T10:46:15;16.00;99.90
26378;DHT22;14078;50.974;6.786;2022-10-31T10:49:01;16.10;99.90
26378;DHT22;14078;50.974;6.786;2022-10-31T10:51:31;16.20;99.90
26378;DHT22;14078;50.974;6.786;2022-10-31T10:54:02;16.30;99.90
26378;DHT22;14078;50.974;6.786;2022-10-31T10:56:36;16.40;99.90
26378;DHT22;14078;50.974;6.786;2022-10-31T10:59:04;16.40;99.90
26378;DHT22;14078;50.974;6.786;2022-10-31T11:01:30;16.40;99.90
26378;DHT22;14078;50.974;6.786;2022-10-31T11:03:57;16.50;99.90
26378;DHT22;14078;50.974;6.786;2022-10-31T11:06:24;16.60;99.90
26378;DHT22;14078;50.974;6.786;2022-10-31T11:08:51;16.70;99.90
26378;DHT22;14078;50.974;6.786;2022-10-31T11:11:22;16.80;99.90
26378;DHT22;14078;50.974;6.786;2022-10-31T11:13:52;16.90;99.90
26378;DHT22;14078;50.974;6.786;2022-10-31T11:16:27;17.00;98.20
26378;DHT22;14078;50.974;6.786;2022-10-31T11:18:54;17.00;93.80
26378;DHT22;14078;50.974;6.786;2022-10-31T11:21:31;17.10;93.20
26378;DHT22;14078;50.974;6.786;2022-10-31T11:24:03;17.10;95.80
26378;DHT22;14078;50.974;6.786;2022-10-31T11:26:30;17.10;94.10
26378;DHT22;14078;50.974;6.786;2022-10-31T11:28:58;17.10;94.70
26378;DHT22;14078;50.974;6.786;2022-10-31T11:31:25;17.10;95.90
26378;DHT22;14078;50.974;6.786;2022-10-31T11:33:53;17.10;96.70
26378;DHT22;14078;50.974;6.786;2022-10-31T11:36:22;17.20;98.10
26378;DHT22;14078;50.974;6.786;2022-10-31T11:38:49;17.30;96.20
26378;DHT22;14078;50.974;6.786;2022-10-31T11:41:17;17.30;92.80
26378;DHT22;14078;50.974;6.786;2022-10-31T11:43:48;17.30;88.60
26378;DHT22;14078;50.974;6.786;2022-10-31T11:46:18;17.20;82.30
26378;DHT22;14078;50.974;6.786;2022-10-31T11:48:46;17.20;75.70
26378;DHT22;14078;50.974;6.786;2022-10-31T11:51:19;17.20;80.00
26378;DHT22;14078;50.974;6.786;2022-10-31T11:53:49;17.40;91.50
26378;DHT22;14078;50.974;6.786;2022-10-31T11:56:16;17.40;74.30
26378;DHT22;14078;50.974;6.786;2022-10-31T11:58:43;17.40;66.20
26378;DHT22;14078;50.974;6.786;2022-10-31T12:01:21;17.30;66.20
26378;DHT22;14078;50.974;6.786;2022-10-31T12:03:51;17.40;66.70
26378;DHT22;14078;50.974;6.786;2022-10-31T12:06:21;17.30;76.40
26378;DHT22;14078;50.974;6.786;2022-10-31T12:08:49;17.30;74.70
26378;DHT22;14078;50.974;6.786;2022-10-31T12:11:35;17.30;82.90
26378;DHT22;14078;50.974;6.786;2022-10-31T12:14:08;17.30;77.10
26378;DHT22;14078;50.974;6.786;2022-10-31T12:16:41;17.20;81.10
26378;DHT22;14078;50.974;6.786;2022-10-31T12:19:12;17.30;79.00
26378;DHT22;14078;50.974;6.786;2022-10-31T12:21:44;17.20;81.00
26378;DHT22;14078;50.974;6.786;2022-10-31T12:24:17;17.20;71.20
26378;DHT22;14078;50.974;6.786;2022-10-31T12:26:48;17.20;78.90
26378;DHT22;14078;50.974;6.786;2022-10-31T12:29:26;17.20;81.10
26378;DHT22;14078;50.974;6.786;2022-10-31T12:31:58;17.20;86.70
26378;DHT22;14078;50.974;6.786;2022-10-31T12:34:37;17.20;89.00
26378;DHT22;14078;50.974;6.786;2022-10-31T12:37:09;17.20;91.90
26378;DHT22;14078;50.974;6.786;2022-10-31T12:39:40;17.20;91.90
26378;DHT22;14078;50.974;6.786;2022-10-31T12:42:12;17.30;82.20
26378;DHT22;14078;50.974;6.786;2022-10-31T12:44:47;17.20;90.40
26378;DHT22;14078;50.974;6.786;2022-10-31T12:47:27;17.30;94.40
26378;DHT22;14078;50.974;6.786;2022-10-31T12:49:59;17.30;90.20
26378;DHT22;14078;50.974;6.786;2022-10-31T12:52:32;17.30;81.60
26378;DHT22;14078;50.974;6.786;2022-10-31T12:55:10;17.30;78.60
26378;DHT22;14078;50.974;6.786;2022-10-31T12:57:39;17.30;84.20
26378;DHT22;14078;50.974;6.786;2022-10-31T13:00:10;17.20;82.50
26378;DHT22;14078;50.974;6.786;2022-10-31T13:02:39;17.20;90.00
26378;DHT22;14078;50.974;6.786;2022-10-31T13:05:12;17.20;86.50
26378;DHT22;14078;50.974;6.786;2022-10-31T13:07:41;17.30;87.90
26378;DHT22;14078;50.974;6.786;2022-10-31T13:10:14;17.30;83.50
26378;DHT22;14078;50.974;6.786;2022-10-31T13:12:42;17.40;80.60
26378;DHT22;14078;50.974;6.786;2022-10-31T13:15:12;17.40;86.80
26378;DHT22;14078;50.974;6.786;2022-10-31T13:17:42;17.50;73.30
26378;DHT22;14078;50.974;6.786;2022-10-31T13:20:15;17.50;73.20
26378;DHT22;14078;50.974;6.786;2022-10-31T13:22:42;17.50;63.30
26378;DHT22;14078;50.974;6.786;2022-10-31T13:25:10;17.60;65.20
26378;DHT22;14078;50.974;6.786;2022-10-31T13:27:43;17.60;73.90
26378;DHT22;14078;50.974;6.786;2022-10-31T13:30:12;17.60;70.70
26378;DHT22;14078;50.974;6.786;2022-10-31T13:32:42;17.60;61.20
26378;DHT22;14078;50.974;6.786;2022-10-31T13:35:12;17.60;60.90
26378;DHT22;14078;50.974;6.786;2022-10-31T13:37:41;17.60;72.30
26378;DHT22;14078;50.974;6.786;2022-10-31T13:40:12;17.60;64.80
26378;DHT22;14078;50.974;6.786;2022-10-31T13:42:47;17.60;63.10
26378;DHT22;14078;50.974;6.786;2022-10-31T13:45:16;17.60;63.70
26378;DHT22;14078;50.974;6.786;2022-10-31T13:47:54;17.60;72.10
26378;DHT22;14078;50.974;6.786;2022-10-31T13:50:21;17.50;57.70
26378;DHT22;14078;50.974;6.786;2022-10-31T13:52:48;17.50;63.90
26378;DHT22;14078;50.974;6.786;2022-10-31T13:57:56;17.40;65.50
26378;DHT22;14078;50.974;6.786;2022-10-31T14:00:23;17.40;74.80
26378;DHT22;14078;50.974;6.786;2022-10-31T14:02:51;17.40;70.80
26378;DHT22;14078;50.974;6.786;2022-10-31T14:05:21;17.40;74.70
26378;DHT22;14078;50.974;6.786;2022-10-31T14:07:48;17.40;79.50
26378;DHT22;14078;50.974;6.786;2022-10-31T14:10:23;17.50;78.30
26378;DHT22;14078;50.974;6.786;2022-10-31T14:12:51;17.50;78.90
26378;DHT22;14078;50.974;6.786;2022-10-31T14:15:18;17.50;76.30
26378;DHT22;14078;50.974;6.786;2022-10-31T14:17:46;17.50;79.00
26378;DHT22;14078;50.974;6.786;2022-10-31T14:23:11;17.40;90.90
26378;DHT22;14078;50.974;6.786;2022-10-31T14:25:38;17.40;78.80
26378;DHT22;14078;50.974;6.786;2022-10-31T14:28:17;17.30;79.60
26378;DHT22;14078;50.974;6.786;2022-10-31T14:30:50;17.30;77.70
26378;DHT22;14078;50.974;6.786;2022-10-31T14:33:18;17.40;73.50
26378;DHT22;14078;50.974;6.786;2022-10-31T14:35:48;17.30;81.60
26378;DHT22;14078;50.974;6.786;2022-10-31T14:38:25;17.30;84.30
26378;DHT22;14078;50.974;6.786;2022-10-31T14:41:03;17.30;81.10
26378;DHT22;14078;50.974;6.786;2022-10-31T14:46:18;17.30;75.50
26378;DHT22;14078;50.974;6.786;2022-10-31T14:48:52;17.40;73.40
26378;DHT22;14078;50.974;6.786;2022-10-31T14:51:24;17.40;78.20
26378;DHT22;14078;50.974;6.786;2022-10-31T14:53:54;17.40;63.20
26378;DHT22;14078;50.974;6.786;2022-10-31T14:56:22;17.40;70.00
26378;DHT22;14078;50.974;6.786;2022-10-31T14:58:50;17.50;68.00
26378;DHT22;14078;50.974;6.786;2022-10-31T15:01:18;17.60;66.70
26378;DHT22;14078;50.974;6.786;2022-10-31T15:03:45;17.60;60.10
26378;DHT22;14078;50.974;6.786;2022-10-31T15:06:14;17.60;57.90
26378;DHT22;14078;50.974;6.786;2022-10-31T15:08:44;17.60;58.50
26378;DHT22;14078;50.974;6.786;2022-10-31T15:11:12;17.50;57.70
26378;DHT22;14078;50.974;6.786;2022-10-31T15:13:43;17.50;60.30
26378;DHT22;14078;50.974;6.786;2022-10-31T15:16:09;17.50;58.50
26378;DHT22;14078;50.974;6.786;2022-10-31T15:18:38;17.50;59.50
26378;DHT22;14078;50.974;6.786;2022-10-31T15:21:06;17.50;63.10
26378;DHT22;14078;50.974;6.786;2022-10-31T15:23:34;17.50;61.50
26378;DHT22;14078;50.974;6.786;2022-10-31T15:26:03;17.40;59.80
26378;DHT22;14078;50.974;6.786;2022-10-31T15:28:31;17.40;58.40
26378;DHT22;14078;50.974;6.786;2022-10-31T15:30:58;17.40;58.40
26378;DHT22;14078;50.974;6.786;2022-10-31T15:33:26;17.40;63.90
26378;DHT22;14078;50.974;6.786;2022-10-31T15:35:54;17.30;56.40
26378;DHT22;14078;50.974;6.786;2022-10-31T15:38:21;17.30;58.70
26378;DHT22;14078;50.974;6.786;2022-10-31T15:40:51;17.30;56.70
26378;DHT22;14078;50.974;6.786;2022-10-31T15:43:18;17.30;54.50
26378;DHT22;14078;50.974;6.786;2022-10-31T15:45:46;17.30;57.30
26378;DHT22;14078;50.974;6.786;2022-10-31T15:48:14;17.30;54.70
26378;DHT22;14078;50.974;6.786;2022-10-31T15:50:45;17.20;63.90
26378;DHT22;14078;50.974;6.786;2022-10-31T15:53:14;17.20;59.10
26378;DHT22;14078;50.974;6.786;2022-10-31T15:55:45;17.20;56.10